Time;durP1;ratioP1;P1;durP2;ratioP2;P2;SDS_P1;SDS_P2;PMS_P1;PMS_P2;Temp;Humidity;BMP_temperature;BMP_pressure;BME280_temperature;BME280_humidity;BME280_pressure;Samples;Min_cycle;Max_cycle;Signal;HPM_P1;HPM_P2
2023/08/29 00:00:11;;;;;;;0.00;0.00;;;11.60;99.90;;;;;;5042752;28;20560;-70
2023/08/29 00:02:40;;;;;;;0.10;0.10;;;11.60;99.90;;;;;;5039294;28;20037;-69
2023/08/29 00:05:22;;;;;;;0.10;0.10;;;11.60;99.90;;;;;;5063104;28;20134;-69
2023/08/29 00:07:48;;;;;;;0.00;0.00;;;11.60;99.90;;;;;;5072240;28;20045;-70
2023/08/29 00:10:13;;;;;;;0.00;0.00;;;11.60;99.90;;;;;;5045778;28;20043;-70
2023/08/29 00:12:42;;;;;;;0.00;0.00;;;11.60;99.90;;;;;;5038985;28;20048;-70
2023/08/29 00:15:09;;;;;;;0.00;0.00;;;11.60;99.90;;;;;;5044942;28;20048;-70
2023/08/29 00:17:35;;;;;;;0.00;0.00;;;11.60;99.90;;;;;;5047829;28;20377;-70
2023/08/29 00:20:01;;;;;;;0.00;0.00;;;11.50;99.90;;;;;;5045447;28;20041;-70
2023/08/29 00:22:27;;;;;;;0.00;0.00;;;11.60;99.90;;;;;;5077303;28;20048;-70
2023/08/29 00:24:52;;;;;;;0.00;0.00;;;11.50;99.90;;;;;;5043118;28;20033;-70
2023/08/29 00:27:21;;;;;;;0.10;0.10;;;11.50;99.90;;;;;;5042307;28;20037;-70
2023/08/29 00:29:47;;;;;;;0.10;0.10;;;11.50;99.90;;;;;;5045995;28;20029;-70
2023/08/29 00:32:13;;;;;;;0.10;0.10;;;11.50;99.90;;;;;;5042267;28;20044;-70
2023/08/29 00:34:38;;;;;;;0.70;0.20;;;11.40;99.90;;;;;;5047044;28;20031;-71
2023/08/29 00:37:04;;;;;;;0.05;0.05;;;11.40;99.90;;;;;;5055514;28;20098;-70
2023/08/29 00:39:30;;;;;;;0.00;0.00;;;11.30;99.90;;;;;;5044707;28;20411;-71
2023/08/29 00:41:55;;;;;;;0.00;0.00;;;11.20;99.90;;;;;;5040951;28;20052;-71
2023/08/29 00:44:21;;;;;;;0.05;0.05;;;11.20;99.90;;;;;;5042150;28;20056;-72
2023/08/29 00:46:47;;;;;;;0.00;0.00;;;11.20;99.90;;;;;;5053858;28;20037;-71
2023/08/29 00:49:17;;;;;;;0.20;0.20;;;11.10;99.90;;;;;;5044030;28;20103;-71
2023/08/29 00:51:43;;;;;;;0.00;0.00;;;11.00;99.90;;;;;;5043654;28;20270;-71
2023/08/29 00:54:09;;;;;;;0.00;0.00;;;10.90;99.90;;;;;;5044441;28;20098;-71
2023/08/29 00:56:38;;;;;;;0.00;0.00;;;10.80;99.90;;;;;;5043274;28;20098;-72
2023/08/29 00:59:04;;;;;;;0.05;0.05;;;10.80;99.90;;;;;;5054995;28;20033;-71
2023/08/29 01:01:32;;;;;;;0.00;0.00;;;10.80;99.90;;;;;;5048044;28;20170;-72
2023/08/29 01:03:59;;;;;;;0.00;0.00;;;10.90;99.90;;;;;;5043306;28;20040;-71
2023/08/29 01:06:25;;;;;;;0.00;0.00;;;10.90;99.90;;;;;;5048156;28;20043;-72
2023/08/29 01:08:51;;;;;;;0.10;0.10;;;10.90;99.90;;;;;;5047166;28;20041;-71
2023/08/29 01:11:41;;;;;;;0.32;0.32;;;10.90;99.90;;;;;;5048414;28;20036;-71
2023/08/29 01:15:03;;;;;;;0.00;0.00;;;10.90;99.90;;;;;;5046814;28;20472;-71
2023/08/29 01:17:34;;;;;;;0.00;0.00;;;10.90;99.90;;;;;;5043990;28;20486;-71
2023/08/29 01:20:01;;;;;;;0.40;0.20;;;10.80;99.90;;;;;;5042719;28;20044;-71
2023/08/29 01:22:37;;;;;;;0.00;0.00;;;10.80;99.90;;;;;;5078163;28;20555;-71
2023/08/29 01:25:23;;;;;;;0.00;0.00;;;10.70;99.90;;;;;;5046824;28;20068;-71
2023/08/29 01:27:49;;;;;;;0.00;0.00;;;10.70;99.90;;;;;;5025202;28;20407;-71
2023/08/29 01:30:15;;;;;;;0.00;0.00;;;10.60;99.90;;;;;;5044708;28;20064;-71
2023/08/29 01:32:41;;;;;;;0.00;0.00;;;10.60;99.90;;;;;;5042574;28;20060;-70
2023/08/29 01:35:10;;;;;;;0.00;0.00;;;10.60;99.90;;;;;;5046157;28;20088;-70
2023/08/29 01:37:35;;;;;;;0.00;0.00;;;10.50;99.90;;;;;;5074004;28;20044;-70
2023/08/29 01:40:01;;;;;;;0.00;0.00;;;10.30;99.90;;;;;;5047196;28;20037;-69
2023/08/29 01:42:27;;;;;;;0.00;0.00;;;10.20;99.90;;;;;;5043858;28;20110;-70
2023/08/29 01:44:52;;;;;;;0.00;0.00;;;10.10;99.90;;;;;;5045676;28;20045;-69
2023/08/29 01:47:18;;;;;;;0.00;0.00;;;10.10;99.90;;;;;;5045796;28;20060;-69
2023/08/29 01:49:44;;;;;;;0.00;0.00;;;10.10;99.90;;;;;;5042574;28;20096;-69
2023/08/29 01:52:09;;;;;;;0.00;0.00;;;10.10;99.90;;;;;;5043811;28;20029;-68
2023/08/29 01:54:35;;;;;;;0.00;0.00;;;10.10;99.90;;;;;;5044309;28;20047;-69
2023/08/29 01:57:01;;;;;;;0.03;0.03;;;10.10;99.90;;;;;;5044318;28;20386;-69
2023/08/29 01:59:29;;;;;;;0.80;0.10;;;10.20;99.90;;;;;;5078835;28;20047;-68
2023/08/29 02:01:56;;;;;;;0.00;0.00;;;10.20;99.90;;;;;;5046714;28;20050;-68
2023/08/29 02:04:21;;;;;;;0.00;0.00;;;10.20;99.90;;;;;;5043132;28;21551;-68
2023/08/29 02:06:47;;;;;;;0.10;0.10;;;10.30;99.90;;;;;;5044518;28;20028;-68
2023/08/29 02:09:12;;;;;;;0.00;0.00;;;10.30;99.90;;;;;;5042646;28;20464;-69
2023/08/29 02:11:38;;;;;;;0.00;0.00;;;10.30;99.90;;;;;;5039434;28;20048;-68
2023/08/29 02:14:04;;;;;;;0.10;0.10;;;10.30;99.90;;;;;;5045843;28;20041;-69
2023/08/29 02:16:31;;;;;;;0.00;0.00;;;10.30;99.90;;;;;;5044901;28;20067;-69
2023/08/29 02:18:57;;;;;;;0.05;0.05;;;10.30;99.90;;;;;;5045720;28;20492;-69
2023/08/29 02:21:22;;;;;;;0.00;0.00;;;10.30;99.90;;;;;;5046441;28;20045;-68
2023/08/29 02:23:48;;;;;;;0.00;0.00;;;10.30;99.90;;;;;;5075508;28;20392;-69
2023/08/29 02:26:13;;;;;;;0.00;0.00;;;10.20;99.90;;;;;;5042951;28;20035;-68
2023/08/29 02:28:39;;;;;;;0.00;0.00;;;10.20;99.90;;;;;;5044177;28;20037;-69
2023/08/29 02:31:06;;;;;;;0.05;0.05;;;10.10;99.90;;;;;;5046757;28;20048;-69
2023/08/29 02:33:35;;;;;;;0.00;0.00;;;10.10;99.90;;;;;;5044129;28;20029;-69
2023/08/29 02:36:04;;;;;;;0.00;0.00;;;10.10;99.90;;;;;;5043895;28;20033;-69
2023/08/29 02:38:30;;;;;;;0.15;0.05;;;10.10;99.90;;;;;;5025136;28;20044;-69
2023/08/29 02:40:55;;;;;;;0.00;0.00;;;10.00;99.90;;;;;;5076516;28;20047;-69
2023/08/29 02:43:21;;;;;;;0.17;0.17;;;9.80;99.90;;;;;;5045783;28;20048;-69
2023/08/29 02:45:50;;;;;;;0.00;0.00;;;9.80;99.90;;;;;;5041271;28;20452;-69
2023/08/29 02:48:15;;;;;;;0.10;0.10;;;9.80;99.90;;;;;;5044502;28;20091;-69
2023/08/29 02:50:42;;;;;;;0.10;0.10;;;9.80;99.90;;;;;;5045325;28;20068;-69
2023/08/29 02:53:08;;;;;;;0.00;0.00;;;9.80;99.90;;;;;;5045383;28;20037;-68
2023/08/29 02:55:34;;;;;;;0.10;0.10;;;9.80;99.90;;;;;;5075614;28;20051;-68
2023/08/29 02:57:59;;;;;;;0.00;0.00;;;9.70;99.90;;;;;;5044297;28;20079;-67
2023/08/29 03:00:25;;;;;;;0.00;0.00;;;9.60;99.90;;;;;;5045643;28;20033;-68
2023/08/29 03:02:50;;;;;;;0.00;0.00;;;9.60;99.90;;;;;;5044739;28;20554;-68
2023/08/29 03:05:16;;;;;;;0.00;0.00;;;9.60;99.90;;;;;;5045243;28;20436;-68
2023/08/29 03:07:42;;;;;;;0.00;0.00;;;9.70;99.90;;;;;;5042967;28;20055;-68
2023/08/29 03:10:08;;;;;;;0.00;0.00;;;9.60;99.90;;;;;;5045962;28;20471;-68
2023/08/29 03:12:33;;;;;;;0.10;0.10;;;9.60;99.90;;;;;;5041798;28;20459;-68
2023/08/29 03:14:59;;;;;;;0.00;0.00;;;9.60;99.90;;;;;;5077651;28;20095;-68
2023/08/29 03:17:25;;;;;;;0.03;0.03;;;9.70;99.90;;;;;;5040974;28;20061;-67
2023/08/29 03:19:51;;;;;;;0.00;0.00;;;9.70;99.90;;;;;;5047690;28;20045;-68
2023/08/29 03:22:16;;;;;;;0.00;0.00;;;9.70;99.90;;;;;;5047079;28;20498;-68
2023/08/29 03:24:46;;;;;;;0.00;0.00;;;9.70;99.90;;;;;;5046012;28;20037;-68
2023/08/29 03:27:12;;;;;;;0.10;0.10;;;9.50;99.90;;;;;;5039522;28;20045;-68
2023/08/29 03:29:39;;;;;;;0.00;0.00;;;9.40;99.90;;;;;;5041981;28;20415;-68
2023/08/29 03:32:04;;;;;;;0.10;0.10;;;9.30;99.90;;;;;;5046359;28;20049;-67
2023/08/29 03:34:30;;;;;;;0.00;0.00;;;9.20;99.90;;;;;;5046228;28;20095;-67
2023/08/29 03:36:55;;;;;;;0.00;0.00;;;9.20;99.90;;;;;;5043490;28;20120;-67
2023/08/29 03:39:21;;;;;;;0.00;0.00;;;9.30;99.90;;;;;;5047193;28;20076;-67
2023/08/29 03:41:47;;;;;;;0.00;0.00;;;9.30;99.90;;;;;;5079981;28;21046;-67
2023/08/29 03:44:13;;;;;;;0.05;0.05;;;9.40;99.90;;;;;;5045748;28;20045;-67
2023/08/29 03:46:38;;;;;;;0.10;0.10;;;9.40;99.90;;;;;;5048100;28;20041;-67
2023/08/29 03:49:30;;;;;;;0.00;0.00;;;9.50;99.90;;;;;;5046774;28;20051;-67
2023/08/29 03:51:56;;;;;;;0.00;0.00;;;9.50;99.90;;;;;;5044470;28;20426;-66
2023/08/29 03:54:22;;;;;;;0.00;0.00;;;9.50;99.90;;;;;;5028318;28;20037;-67
2023/08/29 03:56:48;;;;;;;0.00;0.00;;;9.40;99.90;;;;;;5045934;28;20073;-67
2023/08/29 03:59:17;;;;;;;0.10;0.10;;;9.40;99.90;;;;;;5044545;28;20045;-67
2023/08/29 04:01:43;;;;;;;0.05;0.05;;;9.30;99.90;;;;;;5028846;28;20439;-67
2023/08/29 04:04:09;;;;;;;0.40;0.20;;;9.20;99.90;;;;;;5044041;28;20072;-66
2023/08/29 04:06:35;;;;;;;0.00;0.00;;;9.20;99.90;;;;;;5044792;28;20045;-66
2023/08/29 04:09:03;;;;;;;0.00;0.00;;;9.20;99.90;;;;;;5045146;28;20041;-66
2023/08/29 04:11:30;;;;;;;0.00;0.00;;;9.20;99.90;;;;;;5043632;28;20132;-66
2023/08/29 04:13:56;;;;;;;0.00;0.00;;;9.10;99.90;;;;;;5045418;28;20120;-65
2023/08/29 04:16:22;;;;;;;0.10;0.10;;;9.10;99.90;;;;;;5043915;28;20069;-66
2023/08/29 04:18:47;;;;;;;0.00;0.00;;;9.10;99.90;;;;;;5043805;28;20113;-66
2023/08/29 04:21:13;;;;;;;0.00;0.00;;;9.10;99.90;;;;;;5047930;28;20037;-65
2023/08/29 04:23:38;;;;;;;0.10;0.10;;;9.10;99.90;;;;;;5043549;28;20885;-66
2023/08/29 04:26:04;;;;;;;0.10;0.10;;;9.20;99.90;;;;;;5041925;28;20127;-66
2023/08/29 04:28:30;;;;;;;0.08;0.08;;;9.20;99.90;;;;;;5045613;28;20041;-65
2023/08/29 04:30:56;;;;;;;0.00;0.00;;;9.20;99.90;;;;;;5041666;28;20120;-65
2023/08/29 04:33:21;;;;;;;0.00;0.00;;;9.20;99.90;;;;;;5077040;28;20044;-66
2023/08/29 04:35:51;;;;;;;0.10;0.10;;;9.20;99.90;;;;;;5045626;28;20400;-66
2023/08/29 04:38:17;;;;;;;0.00;0.00;;;9.20;99.90;;;;;;5041508;28;20415;-65
2023/08/29 04:40:43;;;;;;;0.00;0.00;;;9.20;99.90;;;;;;5074522;28;20052;-65
2023/08/29 04:43:08;;;;;;;0.00;0.00;;;9.20;99.90;;;;;;5043571;28;20041;-66
2023/08/29 04:45:34;;;;;;;0.00;0.00;;;9.20;99.90;;;;;;5046571;28;20475;-66
2023/08/29 04:48:00;;;;;;;0.20;0.20;;;9.20;99.90;;;;;;5039945;28;20151;-65
2023/08/29 04:50:26;;;;;;;0.00;0.00;;;9.20;99.90;;;;;;5043063;28;20041;-66
2023/08/29 04:52:53;;;;;;;0.25;0.25;;;9.20;99.90;;;;;;5042537;28;20047;-65
2023/08/29 04:55:19;;;;;;;0.00;0.00;;;9.10;99.90;;;;;;5040803;28;20037;-66
2023/08/29 04:57:45;;;;;;;0.00;0.00;;;9.00;99.90;;;;;;5035521;28;20049;-65
2023/08/29 05:00:12;;;;;;;0.55;0.20;;;8.90;99.90;;;;;;5048245;28;20564;-65
2023/08/29 05:02:39;;;;;;;0.10;0.10;;;8.90;99.90;;;;;;5042271;28;20210;-66
2023/08/29 05:05:06;;;;;;;0.00;0.00;;;9.00;99.90;;;;;;5045685;28;20109;-66
2023/08/29 05:07:32;;;;;;;0.03;0.03;;;9.10;99.90;;;;;;5047792;28;20045;-66
2023/08/29 05:09:58;;;;;;;0.00;0.00;;;9.10;99.90;;;;;;5041447;28;20037;-66
2023/08/29 05:12:24;;;;;;;0.00;0.00;;;9.10;99.90;;;;;;5046322;28;20091;-65
2023/08/29 05:14:49;;;;;;;0.00;0.00;;;9.00;99.90;;;;;;5034815;28;20033;-66
2023/08/29 05:17:15;;;;;;;0.10;0.10;;;9.00;99.90;;;;;;5049643;28;20100;-65
2023/08/29 05:19:41;;;;;;;0.03;0.03;;;9.00;99.90;;;;;;5046265;28;20095;-66
2023/08/29 05:22:07;;;;;;;0.10;0.10;;;9.00;99.90;;;;;;5043032;28;20496;-66
2023/08/29 05:24:32;;;;;;;0.10;0.10;;;9.00;99.90;;;;;;5058806;28;20205;-65
2023/08/29 05:26:58;;;;;;;0.10;0.10;;;9.10;99.90;;;;;;5038828;28;20041;-65
2023/08/29 05:29:24;;;;;;;0.03;0.03;;;9.10;99.90;;;;;;5043298;28;20041;-66
2023/08/29 05:31:49;;;;;;;0.10;0.10;;;9.10;99.90;;;;;;5043171;28;20037;-65
2023/08/29 05:34:15;;;;;;;0.00;0.00;;;9.10;99.90;;;;;;5043651;28;20438;-66
2023/08/29 05:36:40;;;;;;;0.25;0.10;;;9.10;99.90;;;;;;5043138;28;20051;-66
2023/08/29 05:39:07;;;;;;;0.10;0.10;;;9.10;99.90;;;;;;5043281;28;20043;-65
2023/08/29 05:41:33;;;;;;;0.03;0.03;;;9.10;99.90;;;;;;5072665;28;20041;-65
2023/08/29 05:43:58;;;;;;;1.55;0.08;;;9.20;99.90;;;;;;5043087;28;20159;-65
2023/08/29 05:46:24;;;;;;;0.00;0.00;;;9.20;99.90;;;;;;5047802;28;20055;-65
2023/08/29 05:48:49;;;;;;;0.00;0.00;;;9.20;99.90;;;;;;5042582;28;20481;-65
2023/08/29 05:51:15;;;;;;;0.00;0.00;;;9.20;99.90;;;;;;5064334;28;20033;-65
2023/08/29 05:53:41;;;;;;;0.10;0.10;;;9.20;99.90;;;;;;5042844;28;20503;-65
2023/08/29 05:56:06;;;;;;;0.05;0.05;;;9.20;99.90;;;;;;5044185;28;20427;-66
2023/08/29 05:58:32;;;;;;;0.90;0.40;;;9.30;99.90;;;;;;5045605;28;20123;-66
2023/08/29 06:00:57;;;;;;;0.17;0.17;;;9.40;99.90;;;;;;5042031;28;20095;-66
2023/08/29 06:03:23;;;;;;;0.03;0.03;;;9.50;99.90;;;;;;5047056;28;20051;-65
2023/08/29 06:05:49;;;;;;;0.10;0.10;;;9.60;99.90;;;;;;5047255;28;20053;-65
2023/08/29 06:08:17;;;;;;;0.20;0.20;;;9.60;99.90;;;;;;5042830;28;20037;-65
2023/08/29 06:10:43;;;;;;;0.55;0.55;;;9.70;99.90;;;;;;5035086;28;20063;-65
2023/08/29 06:13:09;;;;;;;0.32;0.32;;;9.70;99.90;;;;;;5042918;28;20080;-65
2023/08/29 06:15:35;;;;;;;0.00;0.00;;;9.80;99.90;;;;;;5035662;28;20080;-66
2023/08/29 06:18:01;;;;;;;0.20;0.20;;;9.80;99.90;;;;;;5049031;28;20048;-65
2023/08/29 06:20:27;;;;;;;0.10;0.10;;;9.90;99.90;;;;;;5050584;28;20029;-66
2023/08/29 06:22:56;;;;;;;0.10;0.10;;;10.00;99.90;;;;;;5047638;28;20045;-66
2023/08/29 06:25:22;;;;;;;0.00;0.00;;;10.00;99.90;;;;;;5051002;28;20068;-66
2023/08/29 06:27:55;;;;;;;0.00;0.00;;;10.10;99.90;;;;;;5084883;28;20073;-66
2023/08/29 06:30:21;;;;;;;0.10;0.10;;;10.10;99.90;;;;;;5073821;28;20045;-66
2023/08/29 06:33:06;;;;;;;0.10;0.10;;;10.30;99.90;;;;;;5082948;28;20052;-67
2023/08/29 06:35:36;;;;;;;0.20;0.20;;;10.30;99.90;;;;;;5047135;28;20108;-67
2023/08/29 06:38:01;;;;;;;0.10;0.10;;;10.50;99.90;;;;;;5048878;28;20052;-68
2023/08/29 06:40:28;;;;;;;0.43;0.25;;;10.60;99.90;;;;;;5046766;28;20387;-68
2023/08/29 06:42:53;;;;;;;0.10;0.10;;;10.70;99.90;;;;;;5050694;28;20048;-68
2023/08/29 06:45:19;;;;;;;0.00;0.00;;;10.80;99.90;;;;;;5049335;28;20423;-68
2023/08/29 06:47:44;;;;;;;0.00;0.00;;;11.10;99.90;;;;;;5046105;28;20503;-69
2023/08/29 06:50:10;;;;;;;0.28;0.28;;;11.20;99.90;;;;;;5048777;28;20040;-69
2023/08/29 06:52:35;;;;;;;0.10;0.10;;;11.40;99.90;;;;;;5048450;28;20025;-70
2023/08/29 06:55:02;;;;;;;0.13;0.13;;;11.60;99.90;;;;;;5032050;28;20049;-70
2023/08/29 06:57:29;;;;;;;0.20;0.20;;;11.80;99.90;;;;;;5041447;28;20033;-70
2023/08/29 06:59:55;;;;;;;0.00;0.00;;;12.00;99.90;;;;;;5039793;28;20040;-70
2023/08/29 07:02:20;;;;;;;0.32;0.10;;;12.10;99.90;;;;;;5053177;28;20033;-69
2023/08/29 07:12:00;;;;;;;0.22;0.10;;;12.90;99.90;;;;;;5051287;28;20031;-68
2023/08/29 07:14:25;;;;;;;0.00;0.00;;;13.20;99.90;;;;;;5050180;28;20033;-68
2023/08/29 07:16:51;;;;;;;0.00;0.00;;;13.40;99.90;;;;;;5081535;28;20500;-68
2023/08/29 07:19:17;;;;;;;1.08;0.52;;;13.70;99.90;;;;;;5048129;28;20125;-68
2023/08/29 07:21:44;;;;;;;0.05;0.05;;;13.90;99.90;;;;;;5043614;28;20047;-68
2023/08/29 07:24:09;;;;;;;0.15;0.15;;;14.10;99.90;;;;;;5079081;28;20135;-67
2023/08/29 07:26:35;;;;;;;0.10;0.10;;;14.20;99.90;;;;;;5047916;28;20119;-67
2023/08/29 07:29:01;;;;;;;0.10;0.10;;;14.40;99.90;;;;;;5079479;28;20048;-67
2023/08/29 07:31:26;;;;;;;0.10;0.10;;;14.50;99.90;;;;;;5043316;28;20079;-67
2023/08/29 07:33:52;;;;;;;0.10;0.10;;;14.70;99.90;;;;;;5043942;28;20032;-67
2023/08/29 07:36:17;;;;;;;0.03;0.03;;;14.90;99.90;;;;;;5044728;28;20024;-67
2023/08/29 07:38:45;;;;;;;0.40;0.38;;;15.00;99.90;;;;;;5047093;28;20080;-67
2023/08/29 07:41:10;;;;;;;0.08;0.08;;;15.10;99.90;;;;;;5047048;28;20084;-67
2023/08/29 07:43:36;;;;;;;0.00;0.00;;;15.30;99.90;;;;;;5045549;28;20083;-68
2023/08/29 07:46:01;;;;;;;0.10;0.10;;;15.40;99.90;;;;;;5037865;28;20052;-67
2023/08/29 07:48:28;;;;;;;0.10;0.10;;;15.50;99.90;;;;;;5031184;28;20063;-67
2023/08/29 07:50:54;;;;;;;0.00;0.00;;;15.60;99.90;;;;;;5040386;28;20105;-67
2023/08/29 07:53:19;;;;;;;0.10;0.10;;;15.70;99.90;;;;;;5048305;28;20116;-67
2023/08/29 07:55:45;;;;;;;1.85;0.60;;;15.80;99.90;;;;;;5046155;28;20037;-67
2023/08/29 07:58:11;;;;;;;1.00;0.30;;;15.80;99.90;;;;;;5045969;28;20041;-68
2023/08/29 08:00:36;;;;;;;0.40;0.28;;;15.90;99.90;;;;;;5046636;28;20399;-67
2023/08/29 08:03:03;;;;;;;0.17;0.17;;;16.00;99.90;;;;;;5046499;28;20049;-68
2023/08/29 08:05:30;;;;;;;0.55;0.55;;;16.00;99.90;;;;;;5047052;28;20407;-67
2023/08/29 08:07:56;;;;;;;0.75;0.25;;;16.10;99.90;;;;;;5034761;28;20053;-67
2023/08/29 08:10:22;;;;;;;0.20;0.10;;;16.20;99.90;;;;;;5046725;28;20032;-68
2023/08/29 08:12:49;;;;;;;0.10;0.10;;;16.20;99.90;;;;;;5045870;28;20084;-68
2023/08/29 08:15:15;;;;;;;0.10;0.10;;;16.30;99.90;;;;;;5045849;28;20462;-68
2023/08/29 08:17:41;;;;;;;0.28;0.10;;;16.40;99.90;;;;;;5046766;28;20555;-69
2023/08/29 08:20:08;;;;;;;0.00;0.00;;;16.50;99.90;;;;;;5046981;28;20120;-68
2023/08/29 08:22:35;;;;;;;0.10;0.10;;;16.50;99.90;;;;;;5049869;28;20110;-68
2023/08/29 08:25:01;;;;;;;0.10;0.10;;;16.50;99.90;;;;;;5045676;28;20420;-69
2023/08/29 08:27:26;;;;;;;0.65;0.40;;;16.60;99.90;;;;;;5048181;28;20059;-69
2023/08/29 08:29:52;;;;;;;0.00;0.00;;;16.70;99.90;;;;;;5045536;28;20268;-68
2023/08/29 08:32:19;;;;;;;0.20;0.20;;;16.80;99.90;;;;;;5040130;28;20096;-69
2023/08/29 08:34:45;;;;;;;0.10;0.10;;;16.80;99.90;;;;;;5042317;28;20036;-69
2023/08/29 08:37:10;;;;;;;0.15;0.15;;;17.00;99.90;;;;;;5034694;28;20044;-69
2023/08/29 08:39:37;;;;;;;0.10;0.10;;;17.00;99.90;;;;;;5037757;28;20059;-69
2023/08/29 08:42:03;;;;;;;0.10;0.10;;;17.10;99.90;;;;;;5040551;28;20033;-69
2023/08/29 08:44:31;;;;;;;0.38;0.38;;;17.30;99.90;;;;;;5042465;28;20060;-69
2023/08/29 08:46:58;;;;;;;0.40;0.40;;;17.40;99.90;;;;;;5078074;28;20496;-68
2023/08/29 08:49:24;;;;;;;0.00;0.00;;;17.50;99.90;;;;;;5045407;28;20526;-69
2023/08/29 08:51:50;;;;;;;0.43;0.17;;;17.60;99.90;;;;;;5044583;28;20041;-69
2023/08/29 08:54:15;;;;;;;1.55;0.85;;;17.70;99.90;;;;;;5047205;28;20048;-69
2023/08/29 08:56:42;;;;;;;0.47;0.47;;;17.90;99.90;;;;;;5045393;28;20052;-69
2023/08/29 08:59:09;;;;;;;0.20;0.20;;;18.00;99.90;;;;;;5040905;28;20085;-69
2023/08/29 09:01:35;;;;;;;0.00;0.00;;;17.90;99.90;;;;;;5044751;28;20476;-71
2023/08/29 09:04:00;;;;;;;0.30;0.20;;;17.90;99.90;;;;;;5043796;28;20102;-70
2023/08/29 09:06:26;;;;;;;0.60;0.40;;;17.80;99.90;;;;;;5042745;28;20041;-69
2023/08/29 09:08:55;;;;;;;0.30;0.30;;;17.70;99.90;;;;;;5044411;28;20036;-69
2023/08/29 09:11:21;;;;;;;9.65;2.30;;;17.70;99.90;;;;;;5047771;28;20049;-69
2023/08/29 09:13:49;;;;;;;0.10;0.10;;;17.80;99.90;;;;;;5048520;28;20048;-68
2023/08/29 09:16:16;;;;;;;2.58;0.80;;;17.70;99.90;;;;;;5049990;28;20044;-69
2023/08/29 09:18:49;;;;;;;0.20;0.20;;;17.70;99.90;;;;;;5049092;28;20506;-69
2023/08/29 09:21:21;;;;;;;0.10;0.10;;;17.80;99.90;;;;;;5051045;28;20072;-68
2023/08/29 09:23:52;;;;;;;4.85;0.95;;;17.90;99.90;;;;;;5052343;28;20461;-69
2023/08/29 09:27:09;;;;;;;0.00;0.00;;;18.00;99.90;;;;;;5053450;28;20052;-69
2023/08/29 09:29:39;;;;;;;0.70;0.20;;;18.00;99.90;;;;;;5083269;28;20492;-69
2023/08/29 09:36:04;;;;;;;0.28;0.25;;;17.80;99.90;;;;;;5048166;28;20510;-69
2023/08/29 09:38:31;;;;;;;0.10;0.10;;;17.80;99.90;;;;;;5053241;28;20044;-69
2023/08/29 09:40:57;;;;;;;0.00;0.00;;;17.70;99.90;;;;;;5049591;28;20391;-69
2023/08/29 09:43:32;;;;;;;0.17;0.10;;;17.70;99.90;;;;;;5053859;28;20048;-69
2023/08/29 09:45:59;;;;;;;0.00;0.00;;;17.60;99.90;;;;;;5052301;28;20476;-69
2023/08/29 09:49:15;;;;;;;0.20;0.20;;;17.70;99.90;;;;;;5053560;28;20037;-69
2023/08/29 09:51:41;;;;;;;0.20;0.10;;;17.60;99.90;;;;;;5052310;28;20041;-69
2023/08/29 09:54:10;;;;;;;0.13;0.10;;;17.50;99.90;;;;;;5087422;28;20381;-67
2023/08/29 09:56:40;;;;;;;0.22;0.22;;;17.50;99.90;;;;;;5049263;28;20069;-67
2023/08/29 09:59:12;;;;;;;0.00;0.00;;;17.50;99.90;;;;;;5054068;28;20119;-69
2023/08/29 10:01:44;;;;;;;0.00;0.00;;;17.50;99.90;;;;;;5052310;28;20071;-69
2023/08/29 10:04:14;;;;;;;0.08;0.08;;;17.50;99.90;;;;;;5052876;28;20052;-70
2023/08/29 10:07:18;;;;;;;0.10;0.10;;;17.50;99.90;;;;;;5052713;28;20048;-68
2023/08/29 10:09:45;;;;;;;0.13;0.13;;;17.50;99.90;;;;;;5051991;28;20037;-70
2023/08/29 10:15:46;;;;;;;1.15;0.20;;;17.50;99.90;;;;;;5046322;28;20106;-70
2023/08/29 10:18:51;;;;;;;3.13;0.35;;;17.60;99.90;;;;;;5054746;28;20037;-69
2023/08/29 10:24:45;;;;;;;0.05;0.05;;;17.50;99.90;;;;;;5038034;28;20094;-69
2023/08/29 10:27:11;;;;;;;0.20;0.20;;;17.60;99.90;;;;;;5054253;28;20795;-69
2023/08/29 10:29:37;;;;;;;0.10;0.10;;;17.70;99.90;;;;;;5038579;28;20140;-69
2023/08/29 10:32:05;;;;;;;0.20;0.20;;;17.70;99.90;;;;;;5052557;28;20158;-69
2023/08/29 10:34:30;;;;;;;0.22;0.17;;;17.70;99.90;;;;;;5052929;28;20484;-69
2023/08/29 10:36:57;;;;;;;0.10;0.10;;;17.60;99.90;;;;;;5050370;28;20041;-69
2023/08/29 10:39:26;;;;;;;0.10;0.10;;;17.60;99.90;;;;;;5053032;28;20056;-69
2023/08/29 10:41:56;;;;;;;0.60;0.32;;;17.60;99.90;;;;;;5052273;28;20048;-69
2023/08/29 10:44:42;;;;;;;0.10;0.10;;;17.60;99.90;;;;;;5084898;28;20088;-69
2023/08/29 10:47:30;;;;;;;0.10;0.10;;;17.70;99.90;;;;;;5046982;28;20045;-68
2023/08/29 10:50:05;;;;;;;0.10;0.10;;;17.70;99.90;;;;;;5049484;28;20053;-69
2023/08/29 10:52:41;;;;;;;0.57;0.30;;;17.70;99.90;;;;;;5050283;28;20051;-68
2023/08/29 10:55:22;;;;;;;0.00;0.00;;;17.80;99.90;;;;;;5065088;28;20091;-68
2023/08/29 10:57:49;;;;;;;0.22;0.22;;;17.80;99.90;;;;;;5031560;28;20084;-68
2023/08/29 11:00:18;;;;;;;0.03;0.03;;;17.90;99.90;;;;;;5050261;28;20040;-68
2023/08/29 11:02:44;;;;;;;0.10;0.10;;;18.00;99.90;;;;;;5046471;28;20403;-68
2023/08/29 11:05:12;;;;;;;0.10;0.10;;;18.10;99.90;;;;;;5051976;28;20112;-69
2023/08/29 11:07:49;;;;;;;0.10;0.10;;;18.20;99.90;;;;;;5033832;28;20088;-69
2023/08/29 11:10:22;;;;;;;0.10;0.10;;;18.30;99.90;;;;;;5047633;28;20116;-68
2023/08/29 11:13:09;;;;;;;0.10;0.10;;;18.40;99.90;;;;;;5082429;28;20426;-68
2023/08/29 11:15:47;;;;;;;0.32;0.30;;;18.50;99.90;;;;;;5048698;28;20032;-68
2023/08/29 11:18:20;;;;;;;0.70;0.30;;;18.60;99.90;;;;;;5083847;28;20051;-68
2023/08/29 11:20:47;;;;;;;0.10;0.10;;;18.80;99.90;;;;;;5081574;28;20049;-68
2023/08/29 11:23:24;;;;;;;0.52;0.52;;;18.90;99.90;;;;;;5082322;28;20044;-69
2023/08/29 11:25:51;;;;;;;0.22;0.20;;;19.00;99.90;;;;;;5050030;28;20040;-68
2023/08/29 11:28:20;;;;;;;0.20;0.20;;;19.00;99.90;;;;;;5035638;28;20475;-69
2023/08/29 11:30:47;;;;;;;1.23;1.15;;;19.10;99.90;;;;;;5049337;28;20041;-68
2023/08/29 11:33:14;;;;;;;0.20;0.10;;;19.10;99.90;;;;;;5048499;28;20522;-68
2023/08/29 11:35:42;;;;;;;0.17;0.17;;;19.20;99.90;;;;;;5049942;28;20041;-68
2023/08/29 11:38:08;;;;;;;0.00;0.00;;;19.40;99.90;;;;;;5049093;28;20403;-69
2023/08/29 11:40:34;;;;;;;0.10;0.10;;;19.60;99.90;;;;;;5050960;28;20051;-68
2023/08/29 11:43:00;;;;;;;0.10;0.10;;;19.60;99.90;;;;;;5045916;28;20119;-68
2023/08/29 11:45:29;;;;;;;0.20;0.20;;;19.70;99.90;;;;;;5047729;28;20087;-68
2023/08/29 11:47:57;;;;;;;0.75;0.10;;;19.80;99.90;;;;;;5044364;28;20061;-68
2023/08/29 11:50:23;;;;;;;0.17;0.17;;;19.90;99.90;;;;;;5046039;28;20037;-68
2023/08/29 11:52:49;;;;;;;0.20;0.20;;;19.80;99.90;;;;;;5039640;28;20087;-68
2023/08/29 11:55:17;;;;;;;0.28;0.28;;;19.80;99.90;;;;;;5047735;28;20051;-68
2023/08/29 11:57:44;;;;;;;0.10;0.10;;;19.60;99.90;;;;;;5047726;28;20099;-68
2023/08/29 12:00:12;;;;;;;0.10;0.10;;;19.40;99.90;;;;;;5045867;28;20048;-68
2023/08/29 12:02:38;;;;;;;0.20;0.20;;;19.30;99.90;;;;;;5030179;28;20033;-67
2023/08/29 12:05:07;;;;;;;0.15;0.15;;;19.20;99.90;;;;;;5043166;28;20086;-67
2023/08/29 12:07:34;;;;;;;0.10;0.10;;;19.10;99.90;;;;;;5048406;28;20395;-67
2023/08/29 12:10:13;;;;;;;0.22;0.17;;;19.00;99.90;;;;;;5047593;28;20463;-67
2023/08/29 12:12:41;;;;;;;0.10;0.10;;;19.00;99.90;;;;;;5046715;28;20052;-67
2023/08/29 12:15:11;;;;;;;0.30;0.30;;;18.90;99.90;;;;;;5045757;28;20507;-68
2023/08/29 12:17:42;;;;;;;0.15;0.15;;;18.90;99.90;;;;;;5045842;28;20029;-67
2023/08/29 12:20:13;;;;;;;0.07;0.07;;;18.90;99.90;;;;;;5045733;28;20052;-68
2023/08/29 12:22:42;;;;;;;0.98;0.85;;;19.00;99.90;;;;;;5045236;28;20045;-68
2023/08/29 12:25:09;;;;;;;0.30;0.30;;;19.10;99.90;;;;;;5046253;28;20099;-68
2023/08/29 12:27:35;;;;;;;0.85;0.55;;;19.10;99.90;;;;;;5078617;28;20049;-67
2023/08/29 12:30:01;;;;;;;0.10;0.10;;;19.10;99.90;;;;;;5047256;28;20041;-67
2023/08/29 12:32:28;;;;;;;0.10;0.10;;;19.10;99.90;;;;;;5031084;28;20082;-68
2023/08/29 12:34:58;;;;;;;0.00;0.00;;;19.10;99.90;;;;;;5047947;28;20040;-67
2023/08/29 12:37:24;;;;;;;0.47;0.45;;;19.10;99.90;;;;;;5047413;28;20037;-68
2023/08/29 12:39:54;;;;;;;0.65;0.45;;;19.00;99.90;;;;;;5026146;28;20116;-68
2023/08/29 12:42:19;;;;;;;0.85;0.85;;;18.90;99.90;;;;;;5047870;28;20079;-68
2023/08/29 12:44:46;;;;;;;0.28;0.28;;;18.90;99.90;;;;;;5042931;28;20061;-68
2023/08/29 12:47:12;;;;;;;0.13;0.13;;;18.80;99.90;;;;;;5042015;28;20091;-68
2023/08/29 12:49:37;;;;;;;0.47;0.47;;;18.80;99.90;;;;;;5046544;28;20388;-68
2023/08/29 12:52:04;;;;;;;0.20;0.20;;;18.80;99.90;;;;;;5046517;28;20068;-68
2023/08/29 12:54:30;;;;;;;0.20;0.20;;;18.70;99.90;;;;;;5050343;28;20040;-68
2023/08/29 12:56:55;;;;;;;0.30;0.30;;;18.60;99.90;;;;;;5050844;28;20090;-69
2023/08/29 12:59:41;;;;;;;0.20;0.20;;;18.70;99.90;;;;;;5040182;28;20442;-68
2023/08/29 13:02:07;;;;;;;0.20;0.20;;;18.70;99.90;;;;;;5049288;28;20462;-69
2023/08/29 13:04:36;;;;;;;0.40;0.32;;;18.70;99.90;;;;;;5044817;28;20127;-68
2023/08/29 13:07:03;;;;;;;0.10;0.10;;;18.70;99.90;;;;;;5083015;28;20056;-67
2023/08/29 13:09:38;;;;;;;0.20;0.20;;;18.80;99.90;;;;;;5083007;28;20041;-68
2023/08/29 13:12:05;;;;;;;0.30;0.30;;;18.80;99.90;;;;;;5049630;28;20090;-68